Time;durP1;ratioP1;P1;durP2;ratioP2;P2;SDS_P1;SDS_P2;PMS_P1;PMS_P2;Temp;Humidity;BMP_temperature;BMP_pressure;BME280_temperature;BME280_humidity;BME280_pressure;Samples;Min_cycle;Max_cycle;Signal;HPM_P1;HPM_P2
2021/05/15 00:00:09;;;;;;;;;5.50;5.50;;;;;22.11;38.82;98756.66;4999985;28;8795;-49
2021/05/15 00:02:35;;;;;;;;;5.00;5.00;;;;;21.92;39.07;98762.22;4998354;28;8792;-49
2021/05/15 00:05:02;;;;;;;;;4.60;4.60;;;;;21.81;38.83;98759.28;5001897;28;8796;-49
2021/05/15 00:07:27;;;;;;;;;5.00;5.00;;;;;21.90;38.79;98764.53;4997701;28;9014;-48
2021/05/15 00:09:52;;;;;;;;;3.50;3.50;;;;;21.90;38.81;98756.31;4996422;28;9066;-49
2021/05/15 00:12:17;;;;;;;;;5.25;5.25;;;;;21.87;38.86;98763.31;4995374;28;8783;-49
2021/05/15 00:14:43;;;;;;;;;6.00;6.00;;;;;21.76;39.07;98767.81;4996551;28;8799;-48
2021/05/15 00:17:08;;;;;;;;;5.00;5.00;;;;;21.57;39.68;98760.41;4982194;28;8834;-49
2021/05/15 00:19:34;;;;;;;;;4.00;4.00;;;;;21.69;39.01;98759.47;4979621;28;8930;-50
2021/05/15 00:22:00;;;;;;;;;5.60;5.60;;;;;21.72;39.05;98762.28;4990039;28;8788;-49
2021/05/15 00:24:25;;;;;;;;;4.00;4.00;;;;;21.70;38.99;98759.06;4996392;28;8811;-49
2021/05/15 00:26:51;;;;;;;;;4.00;4.00;;;;;21.68;38.99;98760.59;4994256;28;8832;-49
2021/05/15 00:29:16;;;;;;;;;6.00;5.50;;;;;21.98;38.40;98754.47;4999298;28;8800;-48
2021/05/15 00:31:41;;;;;;;;;5.00;5.00;;;;;21.90;38.27;98759.84;4998396;28;8795;-49
2021/05/15 00:34:06;;;;;;;;;5.50;5.00;;;;;21.69;38.76;98756.72;4983845;28;8811;-49
2021/05/15 00:36:32;;;;;;;;;5.25;5.00;;;;;21.69;38.55;98749.28;4976694;28;8948;-49
2021/05/15 00:38:57;;;;;;;;;5.00;5.00;;;;;21.62;38.80;98745.56;4982821;28;9789;-48
2021/05/15 00:41:22;;;;;;;;;5.00;5.00;;;;;21.55;38.86;98751.75;5000436;28;8804;-49
2021/05/15 00:44:49;;;;;;;;;4.00;4.00;;;;;21.54;38.90;98748.19;4998681;28;8808;-49
2021/05/15 00:46:45;;;;;;;;;5.00;5.00;;;;;21.54;38.88;98744.66;4995375;28;8858;-49
2021/05/15 00:49:12;;;;;;;;;5.00;5.00;;;;;21.51;39.05;98740.72;4996540;28;8800;-49
2021/05/15 00:51:38;;;;;;;;;5.20;5.00;;;;;21.45;38.83;98733.88;4997255;28;8780;-49
2021/05/15 00:54:03;;;;;;;;;5.00;5.00;;;;;21.46;38.93;98749.22;4996418;28;8808;-49
2021/05/15 00:56:31;;;;;;;;;5.00;5.00;;;;;21.44;38.98;98737.00;4998928;28;8808;-48
2021/05/15 00:58:58;;;;;;;;;3.40;3.40;;;;;21.18;39.04;98717.31;5000318;28;9825;-49
2021/05/15 01:01:23;;;;;;;;;4.00;4.00;;;;;21.36;38.85;98708.63;4982590;28;8803;-49
2021/05/15 01:03:49;;;;;;;;;4.50;4.50;;;;;21.71;38.25;98733.22;4987267;28;8853;-49
2021/05/15 01:06:15;;;;;;;;;3.60;3.60;;;;;21.50;38.45;98738.31;4990988;28;8827;-49
2021/05/15 01:08:45;;;;;;;;;4.75;4.75;;;;;21.35;38.65;98739.97;4977453;28;8811;-48
2021/05/15 01:11:11;;;;;;;;;4.00;4.00;;;;;21.31;38.83;98741.84;4979962;28;8791;-48
2021/05/15 01:13:36;;;;;;;;;4.00;4.00;;;;;21.27;38.91;98732.75;4992952;28;8832;-49
2021/05/15 01:16:02;;;;;;;;;5.00;5.00;;;;;21.26;39.04;98729.22;4984609;28;8790;-49
2021/05/15 01:18:27;;;;;;;;;4.00;4.00;;;;;21.23;38.92;98729.13;4986648;28;8792;-49
2021/05/15 01:21:00;;;;;;;;;4.00;4.00;;;;;21.21;38.98;98725.97;4995780;28;8958;-49
2021/05/15 01:23:25;;;;;;;;;4.00;4.00;;;;;21.21;38.92;98717.75;4975749;28;8811;-48
2021/05/15 01:25:50;;;;;;;;;4.00;4.00;;;;;21.18;38.91;98717.31;4979593;28;8823;-49
2021/05/15 01:28:16;;;;;;;;;4.00;4.00;;;;;21.11;39.00;98711.69;4990952;28;8816;-49
2021/05/15 01:30:42;;;;;;;;;4.00;4.00;;;;;21.22;38.97;98719.34;4999026;28;8827;-49
2021/05/15 01:33:07;;;;;;;;;4.00;4.00;;;;;21.17;38.75;98718.47;4991719;28;8837;-49
2021/05/15 01:35:33;;;;;;;;;4.50;4.50;;;;;21.56;38.14;98723.13;4977446;28;8822;-48
2021/05/15 01:37:58;;;;;;;;;5.50;4.50;;;;;21.49;37.97;98717.53;4979060;28;8838;-49
2021/05/15 01:40:23;;;;;;;;;4.00;4.00;;;;;21.29;38.33;98719.47;4990516;28;8824;-49
2021/05/15 01:42:49;;;;;;;;;4.00;4.00;;;;;21.22;38.41;98711.13;4984805;28;8811;-49
2021/05/15 01:45:14;;;;;;;;;4.00;4.00;;;;;21.21;38.44;98712.25;4978983;28;8795;-49
2021/05/15 01:47:40;;;;;;;;;4.00;4.00;;;;;21.15;38.45;98701.56;4981476;28;8827;-49
2021/05/15 01:50:07;;;;;;;;;4.00;4.00;;;;;21.13;38.64;98709.38;4990492;28;8790;-50
2021/05/15 01:52:32;;;;;;;;;4.00;4.00;;;;;21.11;38.59;98700.72;4997348;28;8926;-50
2021/05/15 01:54:58;;;;;;;;;4.50;4.50;;;;;21.07;38.50;98705.34;4995141;28;9591;-50
2021/05/15 01:57:23;;;;;;;;;4.00;4.00;;;;;20.88;38.62;98678.72;4998316;28;8779;-50
2021/05/15 01:59:49;;;;;;;;;4.00;4.00;;;;;21.02;38.64;98707.56;4994981;28;8792;-50
2021/05/15 02:02:14;;;;;;;;;4.00;4.00;;;;;21.01;38.59;98704.03;4997622;28;8836;-48
2021/05/15 02:04:39;;;;;;;;;4.75;4.75;;;;;20.98;38.59;98699.28;4996069;28;8866;-48
2021/05/15 02:07:05;;;;;;;;;4.00;4.00;;;;;21.10;38.48;98699.13;4983295;28;8826;-48
2021/05/15 02:09:30;;;;;;;;;5.00;5.00;;;;;21.35;37.99;98699.63;4979509;28;8799;-49
2021/05/15 02:11:56;;;;;;;;;3.00;3.00;;;;;21.17;37.89;98698.47;4978353;28;9511;-48
2021/05/15 02:14:21;;;;;;;;;4.00;3.75;;;;;21.04;38.22;98697.84;4976759;28;8819;-49
2021/05/15 02:16:46;;;;;;;;;4.00;4.00;;;;;21.00;38.32;98696.97;4997139;28;8847;-49
2021/05/15 02:19:11;;;;;;;;;3.25;3.25;;;;;20.96;38.35;98693.34;4992548;28;8815;-49
2021/05/15 02:21:37;;;;;;;;;4.00;4.00;;;;;20.88;38.58;98697.09;4991171;28;8800;-49
2021/05/15 02:24:03;;;;;;;;;4.75;4.75;;;;;20.90;38.41;98686.59;4994162;28;8792;-50
2021/05/15 02:26:28;;;;;;;;;3.40;3.40;;;;;20.88;38.49;98692.44;4999094;28;8866;-49
2021/05/15 02:28:53;;;;;;;;;3.00;3.00;;;;;20.91;38.38;98691.69;4982770;28;8839;-49
2021/05/15 02:31:19;;;;;;;;;3.00;3.00;;;;;21.10;38.03;98693.63;4970750;28;9557;-49
2021/05/15 02:33:44;;;;;;;;;4.25;4.00;;;;;21.10;38.00;98688.16;4975087;28;8787;-49
2021/05/15 02:36:09;;;;;;;;;4.00;4.00;;;;;21.03;38.12;98687.22;4983228;28;8844;-49
2021/05/15 02:38:35;;;;;;;;;4.50;4.50;;;;;21.02;38.03;98685.63;4982710;28;8815;-49
2021/05/15 02:41:00;;;;;;;;;3.00;3.00;;;;;21.27;37.80;98677.91;5001924;28;8847;-49
2021/05/15 02:43:26;;;;;;;;;3.00;3.00;;;;;21.30;37.46;98677.16;5000142;28;9571;-49
2021/05/15 02:45:52;;;;;;;;;3.25;3.25;;;;;21.11;37.73;98683.50;5000338;28;9595;-49
2021/05/15 02:48:18;;;;;;;;;3.20;3.20;;;;;20.98;37.85;98685.56;4998419;28;8768;-49
2021/05/15 02:50:49;;;;;;;;;4.25;4.25;;;;;21.03;37.86;98677.06;5003104;28;9634;-49
2021/05/15 02:53:15;;;;;;;;;4.80;4.80;;;;;21.01;37.71;98678.59;4999263;28;8827;-49
2021/05/15 02:55:41;;;;;;;;;3.80;3.80;;;;;20.98;37.80;98677.34;5001349;28;8800;-49
2021/05/15 02:58:06;;;;;;;;;5.00;5.00;;;;;20.87;37.86;98671.66;5001172;28;8885;-49
2021/05/15 03:00:32;;;;;;;;;4.00;4.00;;;;;20.83;37.97;98670.00;5001576;28;8822;-49
2021/05/15 03:02:58;;;;;;;;;3.00;3.00;;;;;20.87;37.84;98659.91;4999747;28;10049;-49
2021/05/15 03:05:25;;;;;;;;;3.40;3.40;;;;;20.81;37.97;98664.88;4997449;28;8810;-49
2021/05/15 03:07:51;;;;;;;;;4.20;4.20;;;;;20.79;38.04;98675.38;5000700;28;8836;-49
2021/05/15 03:10:19;;;;;;;;;4.80;4.80;;;;;20.78;37.83;98657.38;4981877;28;8824;-49
2021/05/15 03:12:46;;;;;;;;;3.00;3.00;;;;;20.84;37.91;98660.59;4979711;28;8848;-49
2021/05/15 03:15:13;;;;;;;;;3.20;3.20;;;;;21.11;37.68;98661.56;4978183;28;8779;-49
2021/05/15 03:17:39;;;;;;;;;3.80;3.80;;;;;20.93;37.56;98656.50;4978996;28;8842;-49
2021/05/15 03:20:07;;;;;;;;;4.00;4.00;;;;;20.81;37.82;98664.88;4977301;28;8951;-49
2021/05/15 03:22:33;;;;;;;;;3.40;3.40;;;;;20.79;37.74;98651.53;4995229;28;8796;-49
2021/05/15 03:24:58;;;;;;;;;4.00;4.00;;;;;20.78;37.72;98651.88;4988741;28;8879;-49
2021/05/15 03:27:24;;;;;;;;;4.00;4.00;;;;;20.71;37.89;98644.31;4984760;28;8772;-49
2021/05/15 03:29:49;;;;;;;;;3.00;3.00;;;;;20.88;37.64;98653.25;4995687;28;9850;-49
2021/05/15 03:32:14;;;;;;;;;4.00;4.00;;;;;20.88;37.57;98648.56;5003350;28;8907;-49
2021/05/15 03:34:39;;;;;;;;;4.00;4.00;;;;;20.84;37.59;98644.94;4999889;28;8935;-49
2021/05/15 03:37:05;;;;;;;;;3.75;3.75;;;;;20.84;37.50;98633.19;5000353;28;8812;-49
2021/05/15 03:39:31;;;;;;;;;4.00;4.00;;;;;20.77;37.64;98636.59;4988671;28;8878;-49
2021/05/15 03:41:56;;;;;;;;;4.00;4.00;;;;;20.73;37.81;98633.00;4984994;28;8820;-49
2021/05/15 03:44:22;;;;;;;;;4.00;4.00;;;;;20.67;37.67;98626.19;5000430;28;8922;-49
2021/05/15 03:46:48;;;;;;;;;3.50;3.50;;;;;20.84;37.68;98627.72;5000157;28;8966;-49
2021/05/15 03:49:14;;;;;;;;;3.00;3.00;;;;;20.97;37.31;98626.44;4986312;28;8794;-49
2021/05/15 03:51:39;;;;;;;;;4.00;4.00;;;;;20.79;37.62;98631.53;4980863;28;9556;-49
2021/05/15 03:54:05;;;;;;;;;4.00;4.00;;;;;20.70;37.76;98622.75;4979042;28;8779;-49
2021/05/15 03:56:30;;;;;;;;;3.25;3.25;;;;;20.72;37.59;98631.41;4979429;28;8805;-48
2021/05/15 03:58:56;;;;;;;;;4.00;4.00;;;;;20.68;37.45;98625.84;5002682;28;8797;-49
2021/05/15 04:01:22;;;;;;;;;5.00;5.00;;;;;20.59;37.69;98608.81;4999273;28;8878;-49
2021/05/15 04:03:47;;;;;;;;;6.00;5.00;;;;;20.70;37.62;98620.81;4998942;28;8835;-49
2021/05/15 04:06:13;;;;;;;;;4.00;4.00;;;;;20.72;37.54;98615.75;5000414;28;9889;-49
2021/05/15 04:08:38;;;;;;;;;4.00;4.00;;;;;20.68;37.58;98625.84;4994802;28;8885;-49
2021/05/15 04:11:04;;;;;;;;;4.50;4.50;;;;;20.65;37.50;98632.06;4980502;28;8819;-49
2021/05/15 04:16:14;;;;;;;;;3.20;3.20;;;;;20.63;37.70;98628.88;4979971;28;8791;-48
2021/05/15 04:18:40;;;;;;;;;4.00;4.00;;;;;20.63;37.82;98630.81;4978047;28;8783;-49
2021/05/15 04:21:06;;;;;;;;;5.75;5.00;;;;;20.92;37.22;98623.97;4982787;28;8953;-49
2021/05/15 04:23:31;;;;;;;;;4.20;4.00;;;;;20.80;37.45;98622.16;4977561;28;9579;-48
2021/05/15 04:25:59;;;;;;;;;4.00;4.00;;;;;20.68;37.51;98617.63;4978596;28;8966;-49
2021/05/15 04:28:24;;;;;;;;;4.60;4.60;;;;;20.62;37.62;98624.56;4982614;28;8831;-49
2021/05/15 04:30:50;;;;;;;;;4.00;4.00;;;;;20.66;37.31;98619.94;4978532;28;9622;-49
2021/05/15 04:33:15;;;;;;;;;5.00;4.75;;;;;20.67;37.37;98616.06;4982292;28;8816;-48
2021/05/15 04:35:40;;;;;;;;;3.75;3.75;;;;;20.71;37.35;98610.63;4995566;28;8780;-49
2021/05/15 04:38:06;;;;;;;;;5.00;5.00;;;;;20.78;37.38;98603.34;5000011;28;9655;-49
2021/05/15 04:40:33;;;;;;;;;6.00;5.00;;;;;20.55;37.49;98602.47;4999052;28;8828;-49
2021/05/15 04:42:59;;;;;;;;;3.80;3.80;;;;;20.48;37.48;98596.84;4996511;28;8868;-49
2021/05/15 04:45:28;;;;;;;;;5.00;5.00;;;;;20.58;37.45;98605.28;4994264;28;8982;-49
2021/05/15 04:47:53;;;;;;;;;4.00;4.00;;;;;20.52;37.57;98609.44;4990742;28;8813;-48
2021/05/15 04:50:18;;;;;;;;;4.75;4.25;;;;;20.53;37.47;98605.56;4978311;28;8802;-49
2021/05/15 04:52:44;;;;;;;;;3.50;3.50;;;;;20.72;37.33;98602.06;4975311;28;8834;-49
2021/05/15 04:55:09;;;;;;;;;4.00;4.00;;;;;20.78;37.17;98597.88;4976845;28;8807;-49
2021/05/15 04:57:35;;;;;;;;;4.00;4.00;;;;;20.54;37.39;98614.56;4985357;28;9936;-49
2021/05/15 05:00:00;;;;;;;;;5.00;5.00;;;;;20.47;37.70;98608.94;4994174;28;8788;-49
2021/05/15 05:02:26;;;;;;;;;3.00;3.00;;;;;20.39;37.82;98608.78;4995363;28;9568;-49
2021/05/15 05:04:51;;;;;;;;;4.00;4.00;;;;;20.36;37.75;98601.28;4977179;28;8831;-49
2021/05/15 05:07:17;;;;;;;;;5.00;5.00;;;;;20.35;37.80;98599.72;4974507;28;8849;-49
2021/05/15 05:09:42;;;;;;;;;4.80;4.80;;;;;20.33;37.78;98596.53;4978363;28;8783;-49
2021/05/15 05:12:08;;;;;;;;;4.25;3.75;;;;;20.31;37.65;98596.09;4971851;28;8775;-48
2021/05/15 05:14:35;;;;;;;;;5.00;4.00;;;;;20.33;37.73;98601.22;4976568;28;8803;-49
2021/05/15 05:17:00;;;;;;;;;3.60;3.60;;;;;20.31;37.74;98598.03;4995977;28;9880;-49
2021/05/15 05:19:25;;;;;;;;;4.75;4.75;;;;;20.31;37.84;98598.81;4994744;28;8807;-48
2021/05/15 05:21:52;;;;;;;;;3.75;3.75;;;;;20.27;37.88;98592.50;4995913;28;8835;-49
2021/05/15 05:24:19;;;;;;;;;5.00;5.00;;;;;20.31;37.75;98598.81;4995495;28;8846;-49
2021/05/15 05:26:45;;;;;;;;;3.60;3.60;;;;;20.79;37.15;98593.97;4997093;28;8846;-49
2021/05/15 05:29:11;;;;;;;;;4.60;4.60;;;;;20.76;37.11;98586.47;4997654;28;8857;-49
2021/05/15 05:31:38;;;;;;;;;4.20;4.20;;;;;20.67;37.08;98585.91;4977997;28;8821;-49
2021/05/15 05:34:04;;;;;;;;;4.00;4.00;;;;;20.51;37.46;98594.19;4988941;28;8824;-49
2021/05/15 05:36:30;;;;;;;;;5.00;5.00;;;;;20.40;37.47;98591.22;4998851;28;8780;-48
2021/05/15 05:38:56;;;;;;;;;4.80;4.80;;;;;20.50;37.29;98600.00;4994845;28;8958;-49
2021/05/15 05:41:24;;;;;;;;;4.50;4.50;;;;;21.98;35.17;98592.47;4975108;28;9581;-49
2021/05/15 05:43:50;;;;;;;;;4.20;4.20;;;;;22.25;34.66;98595.97;4997997;28;8800;-49
2021/05/15 05:46:15;;;;;;;;;4.00;4.00;;;;;22.10;34.66;98598.53;4979965;28;8810;-49
2021/05/15 05:48:41;;;;;;;;;5.00;5.00;;;;;21.90;34.92;98591.59;4970500;28;8881;-49
2021/05/15 05:51:06;;;;;;;;;5.00;5.00;;;;;21.93;34.84;98588.09;4974922;28;8818;-49
2021/05/15 05:53:32;;;;;;;;;5.00;5.00;;;;;22.05;34.54;98589.84;4975692;28;9583;-48
2021/05/15 05:55:57;;;;;;;;;6.50;5.50;;;;;21.84;34.90;98590.31;5000919;28;8820;-50
2021/05/15 05:58:22;;;;;;;;;5.00;4.50;;;;;21.81;35.24;98593.78;4996880;28;8987;-49
2021/05/15 06:00:48;;;;;;;;;5.00;5.00;;;;;22.00;34.86;98581.91;4982261;28;8799;-49
2021/05/15 06:03:13;;;;;;;;;6.00;5.25;;;;;21.84;35.06;98585.59;4982753;28;8756;-49
2021/05/15 06:05:38;;;;;;;;;5.00;5.00;;;;;21.65;35.23;98582.94;4992169;28;8796;-49
2021/05/15 06:08:07;;;;;;;;;4.50;4.50;;;;;21.62;35.48;98580.94;4974903;28;8877;-49
2021/05/15 06:10:35;;;;;;;;;5.40;5.00;;;;;21.54;35.61;98578.06;4978982;28;9823;-49
2021/05/15 06:13:00;;;;;;;;;5.00;5.00;;;;;21.52;35.40;98577.66;4982700;28;8831;-49
2021/05/15 06:15:26;;;;;;;;;5.00;5.00;;;;;21.38;35.58;98577.41;4989185;28;9617;-49
2021/05/15 06:17:51;;;;;;;;;4.75;4.75;;;;;21.38;35.65;98566.44;4993417;28;8809;-49
2021/05/15 06:20:17;;;;;;;;;4.50;4.50;;;;;21.43;35.54;98576.31;4983905;28;8822;-49
2021/05/15 06:22:42;;;;;;;;;4.25;4.25;;;;;21.54;35.37;98575.34;4998750;28;8799;-49
2021/05/15 06:25:08;;;;;;;;;4.50;4.50;;;;;21.58;35.31;98575.38;4986760;28;8803;-49
2021/05/15 06:27:33;;;;;;;;;6.00;6.00;;;;;21.51;35.33;98575.28;4983804;28;8876;-49
2021/05/15 06:29:59;;;;;;;;;4.00;4.00;;;;;21.40;35.44;98580.56;4989663;28;8836;-49
2021/05/15 06:32:24;;;;;;;;;5.00;5.00;;;;;21.00;36.07;98573.59;5004813;28;8828;-48
2021/05/15 06:34:49;;;;;;;;;5.00;5.00;;;;;20.63;36.81;98574.06;5000713;28;9534;-49
2021/05/15 06:37:14;;;;;;;;;5.25;5.25;;;;;21.57;35.37;98578.53;4999984;28;9587;-49
2021/05/15 06:39:40;;;;;;;;;5.00;5.00;;;;;21.65;35.20;98571.97;4998909;28;8824;-49
2021/05/15 06:42:06;;;;;;;;;5.00;5.00;;;;;21.50;35.38;98570.97;4994567;28;8784;-49
2021/05/15 06:44:31;;;;;;;;;5.00;5.00;;;;;21.28;35.56;98576.06;4997758;28;8904;-48
2021/05/15 06:46:56;;;;;;;;;5.00;5.00;;;;;21.25;35.79;98576.81;4982645;28;8954;-49
2021/05/15 06:49:22;;;;;;;;;5.25;4.25;;;;;21.06;36.03;98574.09;4997498;28;8788;-49
2021/05/15 06:51:47;;;;;;;;;5.00;5.00;;;;;21.02;36.00;98568.56;4999597;28;8825;-49
2021/05/15 06:54:12;;;;;;;;;5.50;5.50;;;;;21.15;35.75;98569.16;4993849;28;8841;-49
2021/05/15 06:56:38;;;;;;;;;4.75;4.75;;;;;21.01;35.98;98569.72;4976373;28;8814;-49
2021/05/15 06:59:03;;;;;;;;;5.25;5.25;;;;;20.98;36.05;98573.97;4984678;28;8829;-49
2021/05/15 07:01:29;;;;;;;;;6.00;5.80;;;;;20.91;36.26;98570.28;4980720;28;8875;-49
2021/05/15 07:03:54;;;;;;;;;5.75;5.75;;;;;21.05;36.21;98572.50;4978052;28;8978;-49
2021/05/15 07:06:20;;;;;;;;;5.00;5.00;;;;;21.22;35.95;98565.78;4988897;28;8943;-49
2021/05/15 07:08:45;;;;;;;;;5.75;5.00;;;;;21.09;36.15;98565.94;4997738;28;8800;-49
2021/05/15 07:11:11;;;;;;;;;5.50;5.50;;;;;21.00;36.28;98568.09;5002646;28;8784;-48
2021/05/15 07:13:36;;;;;;;;;6.00;6.00;;;;;21.02;36.19;98570.50;5000437;28;8808;-49
2021/05/15 07:16:01;;;;;;;;;5.00;5.00;;;;;21.00;36.11;98562.63;5000229;28;8817;-49
2021/05/15 07:18:27;;;;;;;;;5.00;5.00;;;;;21.12;35.96;98559.72;4992653;28;8812;-49
2021/05/15 07:20:52;;;;;;;;;5.00;5.00;;;;;21.24;35.75;98566.19;4980628;28;8844;-49
2021/05/15 07:23:17;;;;;;;;;6.00;6.00;;;;;21.10;35.88;98567.50;4996956;28;9492;-49
2021/05/15 07:25:43;;;;;;;;;5.50;5.50;;;;;21.21;35.67;98570.44;4994940;28;8793;-49
2021/05/15 07:28:08;;;;;;;;;5.00;4.50;;;;;20.95;36.15;98565.69;4990101;28;9571;-49
2021/05/15 07:30:34;;;;;;;;;5.50;5.50;;;;;21.18;35.95;98563.75;4998164;28;8813;-49
2021/05/15 07:33:00;;;;;;;;;5.75;5.50;;;;;21.08;35.90;98561.59;4991603;28;8779;-49
2021/05/15 07:35:26;;;;;;;;;5.80;5.80;;;;;21.22;35.73;98563.03;4974308;28;8815;-49
2021/05/15 07:37:52;;;;;;;;;6.00;6.00;;;;;21.43;35.60;98555.16;4977697;28;8815;-49
2021/05/15 07:40:17;;;;;;;;;6.00;6.00;;;;;21.40;35.61;98557.84;4976883;28;8945;-48
2021/05/15 07:42:44;;;;;;;;;6.00;6.00;;;;;21.33;35.64;98564.00;4974405;28;8815;-49
2021/05/15 07:45:10;;;;;;;;;4.80;4.80;;;;;21.22;35.67;98560.28;4974316;28;9046;-49
2021/05/15 07:47:35;;;;;;;;;6.00;6.00;;;;;21.23;35.62;98559.94;4976882;28;8843;-49
2021/05/15 07:50:00;;;;;;;;;5.00;5.00;;;;;21.25;35.49;98551.31;4977525;28;9135;-49
2021/05/15 07:52:27;;;;;;;;;4.50;4.50;;;;;21.15;35.80;98553.50;4976115;28;8791;-49
2021/05/15 07:54:54;;;;;;;;;6.00;6.00;;;;;21.06;35.85;98549.44;4989249;28;8832;-49
2021/05/15 07:57:19;;;;;;;;;5.40;5.40;;;;;20.85;35.95;98528.69;4988709;28;8834;-49
2021/05/15 07:59:45;;;;;;;;;5.00;5.00;;;;;21.10;35.77;98544.78;4980766;28;8732;-49
2021/05/15 08:02:11;;;;;;;;;5.60;5.60;;;;;21.12;35.74;98543.25;4998255;28;8792;-49
2021/05/15 08:04:36;;;;;;;;;6.00;6.00;;;;;21.15;35.59;98548.03;4976976;28;9086;-49
2021/05/15 08:07:02;;;;;;;;;5.80;5.80;;;;;20.97;35.83;98535.97;4994903;28;8827;-48
2021/05/15 08:09:27;;;;;;;;;6.00;5.00;;;;;20.87;36.13;98547.53;4987264;28;10015;-49
2021/05/15 08:11:53;;;;;;;;;5.00;5.00;;;;;21.11;35.92;98541.69;4981640;28;8899;-49
2021/05/15 08:14:18;;;;;;;;;5.00;5.00;;;;;21.07;35.98;98543.59;4996963;28;8826;-49
2021/05/15 08:16:43;;;;;;;;;4.75;4.75;;;;;20.89;36.04;98531.50;4994618;28;8958;-49
2021/05/15 08:19:09;;;;;;;;;5.25;5.25;;;;;20.98;35.99;98546.56;4996917;28;8836;-48
2021/05/15 08:21:34;;;;;;;;;5.25;5.25;;;;;20.93;36.05;98535.91;4995829;28;8804;-49
2021/05/15 08:24:00;;;;;;;;;6.00;6.00;;;;;21.08;35.76;98525.97;4995511;28;8810;-48
2021/05/15 08:26:27;;;;;;;;;5.60;5.00;;;;;20.98;35.86;98532.06;4996959;28;8910;-48
2021/05/15 08:28:53;;;;;;;;;4.80;4.80;;;;;20.93;36.01;98533.16;4976855;28;8845;-48
2021/05/15 08:31:19;;;;;;;;;5.40;5.40;;;;;20.91;36.07;98526.44;4978297;28;8844;-48
2021/05/15 08:33:44;;;;;;;;;5.00;5.00;;;;;20.79;36.24;98525.47;4975895;28;8800;-49
2021/05/15 08:36:10;;;;;;;;;5.25;5.25;;;;;20.78;35.91;98518.38;4976811;28;8807;-48
2021/05/15 08:38:37;;;;;;;;;5.40;5.40;;;;;20.97;36.40;98512.06;4973852;28;8834;-48
2021/05/15 08:41:03;;;;;;;;;5.00;5.00;;;;;20.92;35.85;98517.06;4977368;28;8951;-49
2021/05/15 08:43:31;;;;;;;;;5.00;5.00;;;;;21.04;35.97;98516.13;4992273;28;8905;-48
2021/05/15 08:46:00;;;;;;;;;5.00;5.00;;;;;21.24;35.69;98516.81;4983651;28;9797;-50
2021/05/15 08:48:30;;;;;;;;;6.00;6.00;;;;;21.13;35.65;98511.94;4974044;28;8791;-48
2021/05/15 08:50:55;;;;;;;;;4.80;4.80;;;;;21.03;35.79;98511.78;4975411;28;8808;-49
2021/05/15 08:53:21;;;;;;;;;5.25;5.25;;;;;20.93;36.01;98513.16;4973359;28;8827;-48
2021/05/15 08:55:48;;;;;;;;;5.00;5.00;;;;;20.90;35.88;98511.97;4994686;28;8938;-48
2021/05/15 08:58:13;;;;;;;;;5.20;5.20;;;;;20.85;36.03;98516.94;4995687;28;8895;-49
2021/05/15 09:00:41;;;;;;;;;5.75;5.75;;;;;20.88;35.81;98497.00;4995439;28;9708;-48
2021/05/15 09:03:12;;;;;;;;;6.00;6.00;;;;;20.84;35.97;98512.63;4997282;28;8816;-48
2021/05/15 09:05:44;;;;;;;;;4.20;4.20;;;;;20.98;35.81;98512.84;4993531;28;8820;-48
2021/05/15 09:08:11;;;;;;;;;7.40;7.00;;;;;20.92;36.00;98511.59;4996805;28;9683;-48
2021/05/15 09:10:39;;;;;;;;;6.40;6.40;;;;;20.82;36.06;98510.22;4994007;28;8854;-48
2021/05/15 09:13:16;;;;;;;;;6.00;5.00;;;;;20.85;35.97;98506.00;4992075;28;8809;-48
2021/05/15 09:15:44;;;;;;;;;5.80;5.80;;;;;20.88;36.26;98510.72;4996276;28;8841;-48
2021/05/15 09:18:14;;;;;;;;;4.00;4.00;;;;;21.17;35.68;98496.34;4997407;28;9587;-48
2021/05/15 09:20:39;;;;;;;;;7.20;7.20;;;;;21.06;35.92;98492.66;4990819;28;9030;-49
2021/05/15 09:23:16;;;;;;;;;5.00;5.00;;;;;21.03;35.81;98490.63;4994524;28;8823;-48
2021/05/15 09:25:43;;;;;;;;;5.00;5.00;;;;;21.12;35.82;98493.13;4993421;28;8831;-48
2021/05/15 09:28:09;;;;;;;;;5.40;5.40;;;;;21.20;35.60;98485.81;4993780;28;8793;-49
2021/05/15 09:30:35;;;;;;;;;4.20;4.20;;;;;21.06;35.67;98489.13;4994992;28;8881;-49
2021/05/15 09:33:14;;;;;;;;;6.00;5.00;;;;;21.08;35.64;98487.59;4994754;28;8780;-48
2021/05/15 09:35:41;;;;;;;;;5.40;5.40;;;;;21.25;35.48;98485.47;4996019;28;8788;-48
2021/05/15 09:38:06;;;;;;;;;5.20;5.20;;;;;21.07;35.46;98483.28;4997868;28;8824;-48
2021/05/15 09:40:31;;;;;;;;;4.50;4.50;;;;;21.04;35.65;98485.97;4994751;28;9566;-48
2021/05/15 09:43:00;;;;;;;;;5.00;4.75;;;;;21.03;35.72;98479.66;4992542;28;8808;-48
2021/05/15 09:45:28;;;;;;;;;5.00;4.80;;;;;21.30;35.32;98479.69;4986538;28;8800;-48
2021/05/15 09:48:06;;;;;;;;;5.80;5.80;;;;;21.52;34.83;98478.09;4972807;28;8823;-48
2021/05/15 09:50:34;;;;;;;;;5.00;5.00;;;;;21.68;34.67;98473.22;4974585;28;8802;-48
2021/05/15 09:53:12;;;;;;;;;4.60;4.60;;;;;21.67;34.87;98484.56;4973885;28;8883;-48
2021/05/15 09:55:49;;;;;;;;;4.40;4.40;;;;;21.41;35.02;98488.13;4973519;28;8942;-48
2021/05/15 09:58:14;;;;;;;;;4.60;4.60;;;;;21.14;35.38;98479.84;4990545;28;8794;-48
2021/05/15 10:00:45;;;;;;;;;4.50;4.50;;;;;20.96;35.70;98487.78;4986089;28;8918;-48
2021/05/15 10:03:28;;;;;;;;;5.00;4.20;;;;;20.85;35.88;98481.31;4977734;28;8977;-49
2021/05/15 10:05:57;;;;;;;;;4.00;4.00;;;;;20.76;36.22;98482.34;4974214;28;8812;-46
2021/05/15 10:08:22;;;;;;;;;4.00;4.00;;;;;20.91;36.07;98483.38;4991427;28;9631;-47
2021/05/15 10:10:48;;;;;;;;;4.00;4.00;;;;;21.22;35.74;98480.75;4988292;28;9038;-49
2021/05/15 10:13:14;;;;;;;;;5.75;5.00;;;;;21.22;37.34;98467.84;4991942;28;8832;-48
2021/05/15 10:15:39;;;;;;;;;4.50;4.25;;;;;21.41;37.33;98479.88;4995238;28;9538;-48
2021/05/15 10:18:05;;;;;;;;;3.75;3.75;;;;;21.17;37.28;98484.59;4995513;28;8875;-49
2021/05/15 10:20:30;;;;;;;;;5.00;5.00;;;;;21.46;37.43;98483.13;4993197;28;11586;-48
2021/05/15 10:22:56;;;;;;;;;4.00;4.00;;;;;21.88;38.19;98481.34;4994753;28;8860;-47
2021/05/15 10:25:21;;;;;;;;;4.00;4.00;;;;;22.01;37.16;98481.91;4978758;28;8897;-47
2021/05/15 10:27:47;;;;;;;;;5.25;5.25;;;;;21.94;37.38;98480.66;4972489;28;8791;-46
2021/05/15 10:30:18;;;;;;;;;4.00;4.00;;;;;21.85;38.10;98477.41;4979344;28;9761;-45
2021/05/15 10:33:01;;;;;;;;;4.00;4.00;;;;;21.85;38.25;98479.34;4989614;28;8866;-45
2021/05/15 10:35:39;;;;;;;;;3.60;3.60;;;;;21.90;38.14;98477.06;4974252;28;8817;-46
2021/05/15 10:38:07;;;;;;;;;4.20;4.20;;;;;21.89;38.15;98480.19;4972685;28;8807;-48
2021/05/15 10:40:43;;;;;;;;;4.00;4.00;;;;;21.82;38.09;98472.63;4972884;28;8814;-47
2021/05/15 10:43:09;;;;;;;;;3.80;3.80;;;;;21.78;37.90;98466.31;4985952;28;8807;-47
2021/05/15 10:45:42;;;;;;;;;3.00;3.00;;;;;21.96;37.78;98476.75;4988063;28;8791;-47
2021/05/15 10:48:25;;;;;;;;;3.40;3.40;;;;;21.89;37.74;98474.69;4982136;28;8814;-47
2021/05/15 10:51:00;;;;;;;;;4.60;4.00;;;;;21.51;37.63;98482.81;4992882;28;8791;-46
2021/05/15 10:53:27;;;;;;;;;3.00;3.00;;;;;21.30;37.83;98476.94;4976528;28;8795;-45
2021/05/15 10:56:14;;;;;;;;;3.00;2.80;;;;;21.72;37.67;98470.53;4994810;28;8816;-49
2021/05/15 10:58:51;;;;;;;;;3.00;3.00;;;;;21.86;37.77;98473.50;4997495;28;8824;-48
2021/05/15 11:01:21;;;;;;;;;3.00;3.00;;;;;21.97;37.82;98470.06;4980168;28;8806;-49
2021/05/15 11:03:48;;;;;;;;;2.20;2.20;;;;;22.00;38.16;98472.09;4989043;28;8902;-50
2021/05/15 11:06:19;;;;;;;;;3.00;3.00;;;;;22.08;38.13;98471.00;4994730;28;8904;-51
2021/05/15 11:08:59;;;;;;;;;4.00;3.60;;;;;22.06;38.27;98468.63;4996525;28;8815;-48
2021/05/15 11:11:38;;;;;;;;;2.20;2.20;;;;;22.03;38.26;98461.13;4994744;28;8806;-44
2021/05/15 11:14:24;;;;;;;;;3.00;3.00;;;;;22.08;38.32;98466.31;4979923;28;8869;-48
2021/05/15 11:17:24;;;;;;;;;3.00;3.00;;;;;22.12;38.22;98463.59;4977245;28;8920;-48
2021/05/15 11:19:58;;;;;;;;;2.00;2.00;;;;;22.15;38.04;98465.59;4988381;28;9512;-50
2021/05/15 11:22:49;;;;;;;;;3.00;3.00;;;;;22.19;38.44;98455.44;4978650;28;8818;-50
2021/05/15 11:25:14;;;;;;;;;2.60;2.60;;;;;21.94;36.92;98457.91;4990504;28;8816;-46
2021/05/15 11:28:17;;;;;;;;;2.50;2.50;;;;;21.84;37.31;98451.09;4995000;28;8857;-50
2021/05/15 11:30:45;;;;;;;;;5.00;5.00;;;;;22.20;37.52;98457.03;4978831;28;8917;-50
2021/05/15 11:33:17;;;;;;;;;3.00;3.00;;;;;22.16;37.43;98458.16;4984897;28;8816;-48
2021/05/15 11:35:46;;;;;;;;;3.00;3.00;;;;;22.17;37.36;98457.78;4992897;28;8797;-49
2021/05/15 11:38:21;;;;;;;;;2.60;2.60;;;;;22.11;37.95;98451.84;4980106;28;8795;-46
2021/05/15 11:40:46;;;;;;;;;2.20;2.20;;;;;22.05;38.41;98452.53;4976609;28;8929;-46
2021/05/15 11:43:28;;;;;;;;;3.00;3.00;;;;;22.05;38.10;98455.28;4976471;28;8878;-49